Time;durP1;ratioP1;P1;durP2;ratioP2;P2;SDS_P1;SDS_P2;PMS_P1;PMS_P2;Temp;Humidity;BMP_temperature;BMP_pressure;BME280_temperature;BME280_humidity;BME280_pressure;Samples;Min_cycle;Max_cycle;Signal;HPM_P1;HPM_P2
2021/04/26 00:02:34;;;;;;;2.97;0.88;;;5.10;65.00;;;;;;5135480;27;20379;-69
2021/04/26 00:05:15;;;;;;;3.65;1.23;;;5.00;64.80;;;;;;5128137;27;20401;-68
2021/04/26 00:07:43;;;;;;;3.42;1.42;;;5.20;64.50;;;;;;5108350;28;20044;-68
2021/04/26 00:10:23;;;;;;;4.72;0.98;;;5.10;63.70;;;;;;5104753;27;20744;-68
2021/04/26 00:12:51;;;;;;;6.90;1.77;;;5.10;63.70;;;;;;5100476;28;20052;-68
2021/04/26 00:15:20;;;;;;;2.20;0.95;;;5.10;63.60;;;;;;5091485;28;20311;-68
2021/04/26 00:17:47;;;;;;;3.13;1.27;;;5.00;63.70;;;;;;5096545;28;20044;-68
2021/04/26 00:20:16;;;;;;;3.28;0.93;;;4.90;63.90;;;;;;5096117;28;20048;-68
2021/04/26 00:22:43;;;;;;;2.17;1.67;;;4.90;64.10;;;;;;5100359;28;20061;-68
2021/04/26 00:25:24;;;;;;;1.98;1.13;;;4.80;64.50;;;;;;5003097;28;20798;-68
2021/04/26 00:28:06;;;;;;;1.48;0.68;;;4.70;64.80;;;;;;5071708;27;20700;-67
2021/04/26 00:30:47;;;;;;;3.05;1.15;;;4.50;66.30;;;;;;5000248;28;20436;-68
2021/04/26 00:33:28;;;;;;;5.18;0.88;;;4.20;67.30;;;;;;5124322;27;20716;-67
2021/04/26 00:35:56;;;;;;;2.33;0.93;;;4.10;67.80;;;;;;5102823;28;20042;-67
2021/04/26 00:38:36;;;;;;;2.80;0.98;;;4.00;68.20;;;;;;5066251;27;20394;-67
2021/04/26 00:41:09;;;;;;;2.65;1.13;;;4.00;67.90;;;;;;5044492;28;20091;-67
2021/04/26 00:43:50;;;;;;;6.40;2.17;;;4.10;67.70;;;;;;5003113;28;20522;-68
2021/04/26 00:46:29;;;;;;;4.88;1.63;;;4.00;67.90;;;;;;5133024;27;20430;-67
2021/04/26 00:48:56;;;;;;;4.38;1.13;;;3.90;69.00;;;;;;5125128;28;20048;-67
2021/04/26 00:51:23;;;;;;;2.60;1.10;;;3.80;69.40;;;;;;5124120;28;20066;-68
2021/04/26 00:54:03;;;;;;;7.93;2.03;;;3.70;69.80;;;;;;5062389;27;20402;-67
2021/04/26 00:56:30;;;;;;;3.75;1.08;;;3.60;70.10;;;;;;5050573;28;20053;-68
2021/04/26 00:58:57;;;;;;;3.40;1.27;;;3.70;69.90;;;;;;5050460;28;20060;-68
2021/04/26 01:01:26;;;;;;;4.15;1.40;;;3.70;70.20;;;;;;5047306;28;20045;-68
2021/04/26 01:04:07;;;;;;;4.07;1.40;;;3.60;69.90;;;;;;5026467;28;20421;-68
2021/04/26 01:06:51;;;;;;;5.88;1.45;;;3.50;71.00;;;;;;5140846;27;20770;-68
2021/04/26 01:09:19;;;;;;;4.55;1.70;;;3.50;70.70;;;;;;5132226;27;20144;-68
2021/04/26 01:12:02;;;;;;;2.78;1.02;;;3.60;70.10;;;;;;5129088;27;20056;-68
2021/04/26 01:14:38;;;;;;;4.18;1.58;;;3.60;69.80;;;;;;5131900;27;20102;-67
2021/04/26 01:17:11;;;;;;;2.35;1.30;;;3.50;70.20;;;;;;5130760;28;20118;-68
2021/04/26 01:20:33;;;;;;;9.80;1.77;;;3.60;69.90;;;;;;5079194;27;20392;-68
2021/04/26 01:23:49;;;;;;;7.50;1.35;;;3.50;69.50;;;;;;5015938;28;20396;-68
2021/04/26 01:26:31;;;;;;;4.93;1.63;;;3.40;69.60;;;;;;5014174;28;20338;-68
2021/04/26 01:29:20;;;;;;;2.85;1.45;;;3.40;70.20;;;;;;5114110;27;20383;-67
2021/04/26 01:32:26;;;;;;;4.32;1.30;;;3.30;70.60;;;;;;5086649;27;20381;-68
2021/04/26 01:35:09;;;;;;;2.13;0.90;;;3.40;70.40;;;;;;5139573;27;20529;-68
2021/04/26 01:37:38;;;;;;;2.40;1.15;;;3.30;70.20;;;;;;5140750;28;20054;-68
2021/04/26 01:40:08;;;;;;;22.55;1.60;;;3.20;70.90;;;;;;5139452;28;20040;-68
2021/04/26 01:42:51;;;;;;;2.83;0.80;;;3.20;70.70;;;;;;5118621;27;20413;-68
2021/04/26 01:45:20;;;;;;;1.33;0.90;;;3.00;71.50;;;;;;5133727;28;20039;-68
2021/04/26 01:48:01;;;;;;;3.30;1.23;;;3.00;71.80;;;;;;5079517;27;20380;-68
2021/04/26 01:50:49;;;;;;;7.00;2.35;;;3.00;72.30;;;;;;5077450;27;20420;-68
2021/04/26 01:53:17;;;;;;;8.50;1.30;;;3.00;72.20;;;;;;5068510;28;20045;-68
2021/04/26 01:55:45;;;;;;;2.13;1.15;;;2.90;72.40;;;;;;5079082;28;20232;-68
2021/04/26 01:58:13;;;;;;;4.88;1.20;;;3.00;72.30;;;;;;5078028;28;20072;-68
2021/04/26 02:00:39;;;;;;;2.97;1.33;;;3.00;72.40;;;;;;5071732;28;20292;-67
2021/04/26 02:05:54;;;;;;;3.88;1.40;;;2.90;72.60;;;;;;5081054;27;20396;-67
2021/04/26 02:08:34;;;;;;;1.33;0.70;;;2.70;73.60;;;;;;5022583;28;20400;-67
2021/04/26 02:11:02;;;;;;;1.48;0.52;;;2.60;73.60;;;;;;5018572;28;20038;-67
2021/04/26 02:13:30;;;;;;;3.83;0.82;;;2.40;74.00;;;;;;5007124;28;20050;-68
2021/04/26 02:16:10;;;;;;;2.53;1.25;;;2.40;74.20;;;;;;5086766;27;20393;-68
2021/04/26 02:18:38;;;;;;;1.75;0.93;;;2.40;74.30;;;;;;5082470;28;20344;-69
2021/04/26 02:21:17;;;;;;;1.80;0.68;;;2.40;74.60;;;;;;5000346;28;20401;-67
2021/04/26 02:23:57;;;;;;;1.73;0.77;;;2.30;74.90;;;;;;5001969;28;20755;-67
2021/04/26 02:26:40;;;;;;;1.92;0.80;;;2.30;75.40;;;;;;5119581;27;20750;-68
2021/04/26 02:29:08;;;;;;;5.22;1.27;;;2.30;75.50;;;;;;5116382;28;20055;-68
2021/04/26 02:31:35;;;;;;;1.92;0.90;;;2.20;75.30;;;;;;5115671;28;20043;-68
2021/04/26 02:34:20;;;;;;;3.42;1.30;;;2.20;75.20;;;;;;5116621;28;20039;-68
2021/04/26 02:37:12;;;;;;;2.90;1.52;;;2.30;74.80;;;;;;5016940;28;20462;-68
2021/04/26 02:39:56;;;;;;;2.25;1.20;;;2.20;75.20;;;;;;5126941;27;20542;-67
2021/04/26 02:42:41;;;;;;;4.85;1.55;;;2.20;75.40;;;;;;5143303;27;20506;-68
2021/04/26 02:45:11;;;;;;;2.90;1.25;;;2.30;74.70;;;;;;5142865;27;20047;-68
2021/04/26 02:47:51;;;;;;;5.25;1.52;;;2.20;75.00;;;;;;5079465;27;20393;-69
2021/04/26 02:50:54;;;;;;;2.42;1.10;;;2.00;75.50;;;;;;5067229;27;20397;-68
2021/04/26 02:53:38;;;;;;;3.85;1.52;;;2.10;75.50;;;;;;5080974;27;20385;-68
2021/04/26 02:56:19;;;;;;;2.85;1.27;;;2.30;75.00;;;;;;5013949;28;20396;-68
2021/04/26 02:59:02;;;;;;;3.40;1.10;;;2.20;74.60;;;;;;5122041;27;831816;-68
2021/04/26 03:01:50;;;;;;;2.40;1.65;;;2.10;75.50;;;;;;4999205;28;20396;-68
2021/04/26 03:04:34;;;;;;;4.50;1.50;;;2.00;75.30;;;;;;5122327;27;844258;-68
2021/04/26 03:07:17;;;;;;;2.10;0.88;;;2.10;75.10;;;;;;5085447;27;20400;-68
2021/04/26 03:10:15;;;;;;;2.53;1.20;;;2.10;74.80;;;;;;5121288;27;20389;-68
2021/04/26 03:12:54;;;;;;;2.75;1.33;;;2.10;74.50;;;;;;5071116;27;831843;-67
2021/04/26 03:18:07;;;;;;;2.55;0.98;;;2.10;74.40;;;;;;5114374;27;20708;-67
2021/04/26 03:20:47;;;;;;;3.25;1.33;;;2.00;74.40;;;;;;5078501;27;20395;-67
2021/04/26 03:23:16;;;;;;;;;;;1.90;74.70;;;;;;5070155;28;20045;-67
2021/04/26 03:26:03;;;;;;;2.67;1.45;;;1.80;75.40;;;;;;5007947;28;20412;-67
2021/04/26 03:28:46;;;;;;;3.90;1.00;;;1.80;75.50;;;;;;5069032;27;20585;-68
2021/04/26 03:31:15;;;;;;;5.18;1.50;;;1.80;75.70;;;;;;5050060;28;20049;-67
2021/04/26 03:34:13;;;;;;;4.50;1.38;;;1.70;76.10;;;;;;5130501;27;20357;-68
2021/04/26 03:36:53;;;;;;;4.93;1.45;;;1.70;76.60;;;;;;5004245;28;20700;-68
2021/04/26 03:39:31;;;;;;;2.85;1.27;;;1.60;76.60;;;;;;4132889;27;28824520;-68
2021/04/26 03:42:15;;;;;;;4.65;1.42;;;1.60;76.70;;;;;;5078717;27;20388;-67
2021/04/26 03:44:44;;;;;;;3.80;1.80;;;1.50;76.90;;;;;;5079395;28;20197;-68
2021/04/26 03:47:44;;;;;;;4.43;1.23;;;1.50;76.90;;;;;;5055860;28;20075;-67
2021/04/26 03:50:38;;;;;;;2.88;1.30;;;1.40;76.80;;;;;;5103445;27;20387;-67
2021/04/26 03:53:43;;;;;;;3.88;1.65;;;1.40;77.30;;;;;;5077926;27;20414;-67
2021/04/26 03:56:30;;;;;;;2.42;1.27;;;1.20;77.60;;;;;;5114630;27;841942;-67
2021/04/26 03:59:11;;;;;;;3.22;1.30;;;1.20;77.90;;;;;;5065003;27;20394;-68
2021/04/26 04:01:52;;;;;;;3.05;1.17;;;1.20;77.90;;;;;;5079537;27;20396;-67
2021/04/26 04:04:20;;;;;;;5.88;1.23;;;1.10;78.60;;;;;;5082596;28;20045;-67
2021/04/26 04:07:16;;;;;;;5.82;1.15;;;1.20;78.00;;;;;;5042477;28;20384;-68
2021/04/26 04:10:16;;;;;;;1.73;0.73;;;1.20;77.70;;;;;;5068778;27;20394;-68
2021/04/26 04:13:06;;;;;;;9.25;1.50;;;1.20;77.90;;;;;;5067465;28;20195;-67
2021/04/26 04:15:45;;;;;;;2.13;1.00;;;1.20;77.70;;;;;;5001514;28;20396;-68
2021/04/26 04:18:18;;;;;;;2.83;1.10;;;1.20;77.30;;;;;;5029399;28;20271;-67
2021/04/26 04:21:08;;;;;;;2.58;1.20;;;1.10;77.70;;;;;;5063966;27;20401;-68
2021/04/26 04:23:52;;;;;;;2.35;1.15;;;1.00;77.80;;;;;;5001314;28;20405;-68
2021/04/26 04:26:31;;;;;;;2.05;1.05;;;1.00;78.20;;;;;;5118811;27;843872;-68
2021/04/26 04:29:08;;;;;;;2.42;1.10;;;1.10;78.20;;;;;;5146252;27;20690;-68
2021/04/26 04:32:21;;;;;;;4.57;0.93;;;1.10;77.90;;;;;;5067583;27;20690;-67
2021/04/26 04:35:29;;;;;;;5.80;1.42;;;1.20;77.90;;;;;;5111521;27;861665;-68
2021/04/26 04:38:27;;;;;;;4.45;1.02;;;1.30;77.40;;;;;;5002284;28;20393;-68
2021/04/26 04:41:25;;;;;;;3.55;1.08;;;1.30;77.40;;;;;;5080623;27;20388;-67
2021/04/26 04:44:06;;;;;;;2.33;0.82;;;1.40;77.10;;;;;;5018756;28;20584;-67
2021/04/26 04:46:47;;;;;;;1.48;0.90;;;1.50;76.70;;;;;;5090301;27;20467;-68
2021/04/26 04:49:29;;;;;;;6.85;1.38;;;1.50;76.50;;;;;;5138221;27;874892;-68
2021/04/26 04:51:56;;;;;;;6.20;1.73;;;1.60;76.20;;;;;;5170540;27;20048;-68
2021/04/26 04:54:23;;;;;;;4.22;1.10;;;1.60;76.30;;;;;;5150312;27;20126;-67
2021/04/26 04:56:58;;;;;;;7.47;1.60;;;1.50;76.50;;;;;;5150802;27;20039;-68
2021/04/26 04:59:28;;;;;;;2.35;1.42;;;1.60;76.60;;;;;;5150861;27;20049;-67
2021/04/26 05:02:21;;;;;;;2.03;1.05;;;1.60;76.00;;;;;;5059651;28;20381;-67
2021/04/26 05:05:18;;;;;;;2.83;0.90;;;1.70;75.60;;;;;;5002964;28;20400;-68
2021/04/26 05:08:22;;;;;;;7.65;1.25;;;1.70;75.20;;;;;;5068366;27;20701;-67
2021/04/26 05:11:21;;;;;;;4.20;2.00;;;1.80;74.90;;;;;;5081425;27;20596;-67
2021/04/26 05:14:32;;;;;;;4.05;1.13;;;1.90;74.20;;;;;;5116896;27;924896;-68
2021/04/26 05:16:59;;;;;;;3.13;1.40;;;2.00;74.20;;;;;;5134181;27;20365;-67
2021/04/26 05:21:46;;;;;;;10.65;1.33;;;2.00;74.00;;;;;;5073498;27;20392;-68
2021/04/26 05:24:13;;;;;;;3.90;1.25;;;2.00;73.60;;;;;;5075640;28;20090;-68
2021/04/26 05:26:53;;;;;;;3.70;1.48;;;2.10;73.40;;;;;;5061478;27;20417;-68
2021/04/26 05:29:33;;;;;;;4.45;1.33;;;2.20;72.80;;;;;;5115805;27;835256;-68
2021/04/26 05:32:01;;;;;;;1.40;0.77;;;2.30;72.40;;;;;;5127510;27;20054;-67
2021/04/26 05:34:41;;;;;;;2.75;1.15;;;2.40;71.80;;;;;;5002516;28;20385;-67
2021/04/26 05:37:08;;;;;;;3.92;1.42;;;2.40;71.60;;;;;;5002441;28;20107;-68
2021/04/26 05:39:35;;;;;;;3.17;1.15;;;2.40;71.50;;;;;;5034017;28;20053;-67
2021/04/26 05:42:16;;;;;;;2.95;1.10;;;2.50;71.60;;;;;;5116897;27;20479;-68
2021/04/26 05:44:43;;;;;;;5.15;1.73;;;2.60;71.70;;;;;;5106040;28;20123;-68
2021/04/26 05:47:42;;;;;;;3.65;1.27;;;2.60;71.50;;;;;;5118424;27;20389;-67
2021/04/26 05:50:09;;;;;;;3.45;1.05;;;2.70;70.90;;;;;;5093542;28;20103;-67
2021/04/26 05:52:36;;;;;;;1.98;0.88;;;2.80;70.90;;;;;;5096517;28;20123;-67
2021/04/26 05:55:04;;;;;;;2.47;1.02;;;2.90;70.60;;;;;;5095710;28;20238;-67
2021/04/26 05:57:30;;;;;;;6.65;1.92;;;2.90;70.40;;;;;;5093507;28;20040;-68
2021/04/26 06:00:12;;;;;;;2.00;0.90;;;3.00;70.20;;;;;;5104977;27;20437;-68
2021/04/26 06:02:53;;;;;;;4.25;1.27;;;3.20;69.50;;;;;;5075124;27;20711;-68
2021/04/26 06:05:31;;;;;;;4.65;1.25;;;3.40;68.80;;;;;;5071977;27;1464764;-68
2021/04/26 06:08:11;;;;;;;2.53;1.10;;;3.50;67.80;;;;;;5072184;27;20447;-68
2021/04/26 06:10:51;;;;;;;2.60;1.10;;;3.60;67.20;;;;;;5005524;28;20605;-68
2021/04/26 06:13:18;;;;;;;3.55;1.05;;;3.80;66.40;;;;;;5004708;28;20153;-69
2021/04/26 06:15:45;;;;;;;2.00;1.02;;;3.90;65.60;;;;;;5006131;28;20057;-68
2021/04/26 06:18:14;;;;;;;2.45;1.02;;;4.00;65.10;;;;;;5003389;28;20058;-68
2021/04/26 06:20:42;;;;;;;1.98;1.25;;;4.20;64.70;;;;;;5001334;28;20050;-67
2021/04/26 06:23:11;;;;;;;1.73;0.70;;;4.30;63.90;;;;;;5002339;28;20050;-68
2021/04/26 06:25:39;;;;;;;4.68;1.15;;;4.40;63.20;;;;;;5004287;28;22007;-67
2021/04/26 06:28:08;;;;;;;4.63;1.02;;;4.50;62.80;;;;;;5004309;28;20570;-68
2021/04/26 06:30:47;;;;;;;3.13;0.93;;;4.70;62.30;;;;;;5066902;27;20396;-67
2021/04/26 06:33:28;;;;;;;7.75;1.80;;;4.70;61.90;;;;;;5107760;27;20921;-68
2021/04/26 06:35:55;;;;;;;1.92;0.80;;;4.90;61.60;;;;;;5090912;28;20040;-68
2021/04/26 06:38:24;;;;;;;1.75;0.70;;;5.10;61.10;;;;;;5087421;28;20216;-68
2021/04/26 06:41:05;;;;;;;2.55;1.23;;;5.20;60.60;;;;;;5063537;27;20385;-67
2021/04/26 06:43:47;;;;;;;2.88;1.10;;;5.30;60.30;;;;;;5062907;27;20456;-67
2021/04/26 06:46:14;;;;;;;1.90;0.85;;;5.40;59.20;;;;;;5052831;28;20077;-67
2021/04/26 06:48:53;;;;;;;3.15;0.90;;;5.50;58.90;;;;;;5079739;27;20391;-67
2021/04/26 06:51:20;;;;;;;1.70;0.80;;;5.70;58.80;;;;;;5069706;28;20046;-67
2021/04/26 06:53:59;;;;;;;1.50;1.13;;;5.70;57.10;;;;;;5021118;28;20392;-67
2021/04/26 06:56:39;;;;;;;1.52;0.60;;;5.80;56.60;;;;;;5098449;27;20379;-67
2021/04/26 06:59:06;;;;;;;2.17;0.80;;;6.00;54.80;;;;;;5095846;28;20047;-68
2021/04/26 07:01:46;;;;;;;3.95;0.90;;;6.10;53.70;;;;;;5056670;27;20390;-66
2021/04/26 07:04:17;;;;;;;2.05;0.75;;;6.20;52.90;;;;;;5064412;28;20044;-68
2021/04/26 07:07:03;;;;;;;2.95;0.60;;;6.40;52.10;;;;;;5141895;27;20356;-67
2021/04/26 07:09:30;;;;;;;2.50;0.70;;;6.50;51.40;;;;;;5142362;27;20043;-67
2021/04/26 07:11:57;;;;;;;2.20;0.85;;;6.60;51.70;;;;;;5134870;27;20258;-68
2021/04/26 07:14:24;;;;;;;2.08;0.88;;;6.70;50.70;;;;;;5141109;27;20051;-68
2021/04/26 07:17:07;;;;;;;1.55;0.90;;;6.90;50.10;;;;;;5078818;27;20392;-68
2021/04/26 07:19:34;;;;;;;0.68;0.55;;;7.00;50.30;;;;;;5060082;28;20068;-67
2021/04/26 07:22:01;;;;;;;3.45;0.60;;;7.00;49.90;;;;;;5055918;28;20049;-67
2021/04/26 07:24:43;;;;;;;2.45;0.60;;;7.10;48.60;;;;;;5065468;27;20398;-67
2021/04/26 07:27:11;;;;;;;9.35;0.63;;;7.20;48.00;;;;;;5062616;28;20262;-67
2021/04/26 07:29:58;;;;;;;1.67;0.63;;;7.40;45.70;;;;;;5132818;27;20368;-68
2021/04/26 07:32:27;;;;;;;3.10;0.43;;;7.60;46.80;;;;;;5129737;28;20199;-67
2021/04/26 07:34:54;;;;;;;0.98;0.30;;;7.70;44.80;;;;;;5105116;28;20039;-66
2021/04/26 07:37:34;;;;;;;0.20;0.20;;;7.90;40.50;;;;;;5069234;28;20587;-68
2021/04/26 07:40:17;;;;;;;2.78;0.50;;;8.10;40.30;;;;;;5015971;28;20392;-67
2021/04/26 07:42:45;;;;;;;2.95;0.50;;;8.20;39.60;;;;;;5013321;28;20056;-67
2021/04/26 07:45:30;;;;;;;0.82;0.20;;;8.30;40.10;;;;;;5106686;27;20756;-68
2021/04/26 07:48:10;;;;;;;1.38;0.10;;;8.40;38.00;;;;;;5008942;28;20442;-67
2021/04/26 07:50:50;;;;;;;3.55;0.73;;;8.50;37.30;;;;;;5093491;27;20408;-68
2021/04/26 07:53:17;;;;;;;1.00;0.45;;;8.60;37.40;;;;;;5073198;28;20036;-67
2021/04/26 07:55:57;;;;;;;1.17;0.32;;;8.70;36.70;;;;;;5082054;27;20583;-68
2021/04/26 07:58:24;;;;;;;0.63;0.20;;;8.80;36.50;;;;;;5073172;28;20047;-67
2021/04/26 08:01:11;;;;;;;0.40;0.20;;;8.90;36.80;;;;;;5057684;28;20064;-67
2021/04/26 08:03:58;;;;;;;1.02;0.30;;;9.00;35.90;;;;;;5030836;28;20048;-67
2021/04/26 08:06:45;;;;;;;0.52;0.13;;;9.10;35.50;;;;;;5035930;28;20076;-68
2021/04/26 08:09:32;;;;;;;1.25;0.20;;;9.00;34.50;;;;;;5050410;28;20072;-67
2021/04/26 08:12:21;;;;;;;1.00;0.10;;;9.20;35.70;;;;;;5050469;28;20132;-68
2021/04/26 08:15:10;;;;;;;0.77;0.20;;;9.40;35.80;;;;;;5037305;28;20060;-67
2021/04/26 08:17:57;;;;;;;1.40;0.52;;;9.50;33.70;;;;;;5037098;28;20084;-68
2021/04/26 08:20:44;;;;;;;0.20;0.10;;;9.50;34.10;;;;;;5053441;28;20067;-67
2021/04/26 08:23:32;;;;;;;1.08;0.43;;;9.70;34.80;;;;;;5074709;28;20128;-67
2021/04/26 08:26:19;;;;;;;1.42;0.30;;;9.90;34.30;;;;;;5066799;28;20077;-67
2021/04/26 08:29:08;;;;;;;2.72;0.77;;;10.00;33.30;;;;;;5072623;28;20164;-67
2021/04/26 08:31:55;;;;;;;0.47;0.30;;;10.00;32.20;;;;;;5083823;28;20240;-68
2021/04/26 08:34:42;;;;;;;4.10;0.50;;;10.00;33.00;;;;;;5066485;28;20049;-68
2021/04/26 08:37:29;;;;;;;0.85;0.35;;;10.10;32.90;;;;;;5063545;28;20081;-67
2021/04/26 08:40:16;;;;;;;0.73;0.40;;;10.30;32.60;;;;;;5072388;28;20112;-66
2021/04/26 08:43:05;;;;;;;1.38;0.38;;;10.30;32.40;;;;;;5061328;28;24479;-67
2021/04/26 08:45:55;;;;;;;5.95;0.70;;;10.30;31.40;;;;;;5075143;28;20056;-67
2021/04/26 08:48:42;;;;;;;4.00;0.40;;;10.20;31.00;;;;;;5063519;28;20064;-67
2021/04/26 08:51:30;;;;;;;0.93;0.32;;;10.30;30.80;;;;;;5075919;28;20136;-67
2021/04/26 08:54:19;;;;;;;1.33;0.25;;;10.40;31.80;;;;;;5073663;28;20080;-67
2021/04/26 08:57:06;;;;;;;0.82;0.30;;;10.30;30.00;;;;;;5076164;28;20128;-67
2021/04/26 08:59:53;;;;;;;1.40;0.28;;;10.40;30.30;;;;;;5068306;28;20087;-68
2021/04/26 09:02:46;;;;;;;0.60;0.28;;;10.70;31.80;;;;;;5060724;28;20061;-68
2021/04/26 09:05:24;;;;;;;0.45;0.15;;;10.70;30.40;;;;;;5074677;28;20056;-68
2021/04/26 09:07:51;;;;;;;1.00;0.10;;;10.40;30.20;;;;;;5063790;28;20049;-67
2021/04/26 09:10:39;;;;;;;0.43;0.20;;;10.50;31.00;;;;;;5062297;28;20270;-68
2021/04/26 09:13:24;;;;;;;0.85;0.20;;;10.60;29.90;;;;;;5063866;28;20052;-67
2021/04/26 09:15:52;;;;;;;1.33;0.25;;;10.70;30.20;;;;;;5057589;28;20081;-68
2021/04/26 09:18:20;;;;;;;1.67;0.30;;;10.90;31.40;;;;;;5059642;28;20055;-67
2021/04/26 09:20:47;;;;;;;0.77;0.20;;;11.10;31.00;;;;;;5061070;28;20053;-67
2021/04/26 09:23:16;;;;;;;0.98;0.30;;;11.30;30.60;;;;;;5061484;28;20422;-67
2021/04/26 09:25:43;;;;;;;0.25;0.15;;;11.40;30.30;;;;;;5058405;28;20137;-67
2021/04/26 09:28:12;;;;;;;1.10;0.20;;;11.60;30.50;;;;;;5059106;28;20056;-67
2021/04/26 09:30:49;;;;;;;1.08;0.50;;;11.70;29.70;;;;;;5060957;28;20337;-67
2021/04/26 09:33:22;;;;;;;0.63;0.30;;;11.80;30.10;;;;;;5051457;28;20380;-68
2021/04/26 09:36:12;;;;;;;1.35;0.30;;;11.90;30.10;;;;;;5059148;28;20049;-67
2021/04/26 09:38:39;;;;;;;1.48;0.45;;;12.10;29.90;;;;;;5062079;28;20298;-67
2021/04/26 09:41:22;;;;;;;1.35;0.30;;;12.20;29.70;;;;;;5059249;28;20066;-68
2021/04/26 09:44:06;;;;;;;0.75;0.20;;;12.20;29.00;;;;;;5060889;28;20336;-67
2021/04/26 09:46:40;;;;;;;1.75;0.70;;;12.30;28.80;;;;;;5060850;28;20061;-68
2021/04/26 09:49:10;;;;;;;0.75;0.28;;;12.40;28.60;;;;;;5062268;28;20060;-67
2021/04/26 09:51:37;;;;;;;1.00;0.30;;;12.60;28.70;;;;;;5060276;28;20352;-68
2021/04/26 09:54:17;;;;;;;1.17;0.20;;;12.60;27.50;;;;;;5060655;28;20365;-67
2021/04/26 09:56:46;;;;;;;0.60;0.22;;;12.80;27.90;;;;;;5062774;28;20301;-68
2021/04/26 09:59:14;;;;;;;0.50;0.20;;;12.80;26.90;;;;;;5059006;28;20095;-68
2021/04/26 10:01:43;;;;;;;0.40;0.20;;;13.20;27.70;;;;;;5055646;28;20371;-68
2021/04/26 10:04:11;;;;;;;1.80;0.38;;;13.80;27.50;;;;;;5055661;28;20056;-67
2021/04/26 10:06:39;;;;;;;2.05;0.50;;;14.50;26.40;;;;;;5056948;28;20060;-68
2021/04/26 10:09:08;;;;;;;2.30;0.40;;;15.20;25.30;;;;;;5056853;28;20069;-67
2021/04/26 10:11:38;;;;;;;1.17;0.30;;;15.90;24.20;;;;;;5052322;28;20049;-68
2021/04/26 10:14:07;;;;;;;0.45;0.20;;;16.90;23.90;;;;;;5058754;28;20057;-67
2021/04/26 10:16:41;;;;;;;1.30;0.30;;;18.10;21.50;;;;;;5054065;28;20049;-67
2021/04/26 10:19:08;;;;;;;1.10;0.30;;;18.60;21.50;;;;;;5053034;28;20072;-67
2021/04/26 10:21:37;;;;;;;1.08;0.50;;;19.20;20.30;;;;;;5054711;28;20064;-67
2021/04/26 10:24:19;;;;;;;1.35;0.45;;;19.90;20.40;;;;;;5058426;28;20056;-67
2021/04/26 10:26:49;;;;;;;0.88;0.40;;;21.10;19.20;;;;;;5058757;28;20076;-67
2021/04/26 10:29:19;;;;;;;2.70;0.60;;;22.10;18.50;;;;;;5052349;28;20048;-67
2021/04/26 10:32:07;;;;;;;4.25;0.60;;;22.20;17.80;;;;;;5057978;28;20060;-68
2021/04/26 10:34:36;;;;;;;1.52;0.50;;;22.20;17.90;;;;;;5056381;28;20124;-66
2021/04/26 10:37:19;;;;;;;1.00;0.22;;;22.90;16.30;;;;;;5049237;28;20279;-67
2021/04/26 10:40:05;;;;;;;1.55;0.63;;;23.20;17.40;;;;;;5045068;28;20064;-67
2021/04/26 10:42:33;;;;;;;4.00;0.55;;;23.40;16.50;;;;;;5047450;28;20049;-67
2021/04/26 10:45:00;;;;;;;1.90;0.93;;;23.40;16.00;;;;;;5046233;28;20064;-67
2021/04/26 10:47:37;;;;;;;0.73;0.30;;;23.70;16.10;;;;;;5050109;28;20057;-70
2021/04/26 10:50:29;;;;;;;1.08;0.32;;;24.00;15.60;;;;;;5051384;28;20068;-66
2021/04/26 10:52:59;;;;;;;0.75;0.20;;;24.00;15.10;;;;;;5046288;28;20077;-67
2021/04/26 10:55:44;;;;;;;1.90;0.75;;;24.00;15.80;;;;;;5045926;28;20053;-67
2021/04/26 10:58:39;;;;;;;1.92;0.30;;;25.10;15.10;;;;;;5046886;28;20089;-67
2021/04/26 11:01:08;;;;;;;4.30;0.68;;;24.30;15.20;;;;;;5042775;28;20053;-68
2021/04/26 11:03:40;;;;;;;1.55;0.50;;;25.40;15.70;;;;;;5047147;28;20056;-68
2021/04/26 11:06:13;;;;;;;2.95;0.40;;;26.00;14.10;;;;;;5044521;28;20053;-67
2021/04/26 11:08:43;;;;;;;1.65;0.45;;;26.00;14.00;;;;;;5047931;28;20092;-67
2021/04/26 11:11:14;;;;;;;0.70;0.30;;;25.80;14.20;;;;;;5045067;28;20060;-68
2021/04/26 11:13:52;;;;;;;0.90;0.30;;;25.80;14.30;;;;;;5042596;28;20119;-67
2021/04/26 11:16:21;;;;;;;0.90;0.30;;;26.10;14.10;;;;;;5045301;28;20108;-67
2021/04/26 11:19:07;;;;;;;2.20;0.57;;;26.10;14.20;;;;;;5043775;28;20045;-67
2021/04/26 11:21:57;;;;;;;0.60;0.40;;;26.40;13.90;;;;;;5043809;28;20060;-68
2021/04/26 11:25:06;;;;;;;2.28;0.60;;;27.50;12.90;;;;;;5044621;28;20052;-67
2021/04/26 11:27:37;;;;;;;1.03;0.53;;;27.00;13.40;;;;;;5047979;28;20060;-68
2021/04/26 11:30:18;;;;;;;1.40;0.30;;;27.80;13.10;;;;;;5044434;28;20072;-68
2021/04/26 11:33:05;;;;;;;1.95;0.60;;;26.90;13.50;;;;;;5048736;28;20057;-67
2021/04/26 11:35:33;;;;;;;2.22;0.50;;;28.20;12.60;;;;;;5047315;28;20167;-67
2021/04/26 11:38:02;;;;;;;1.92;0.30;;;28.60;12.20;;;;;;5046520;28;20049;-68
2021/04/26 11:40:31;;;;;;;1.42;0.50;;;28.10;12.40;;;;;;5046782;28;20060;-66
2021/04/26 11:43:05;;;;;;;2.78;0.90;;;27.80;12.40;;;;;;5044546;28;20064;-67
2021/04/26 11:45:32;;;;;;;2.60;0.50;;;28.40;12.30;;;;;;5045165;28;20052;-66
2021/04/26 11:47:58;;;;;;;0.93;0.40;;;28.60;11.90;;;;;;5044153;28;20664;-67
2021/04/26 11:50:26;;;;;;;1.65;0.57;;;28.80;11.80;;;;;;5047074;28;20315;-67
2021/04/26 11:52:53;;;;;;;1.20;0.50;;;28.70;11.80;;;;;;5047676;28;20124;-68
2021/04/26 11:55:23;;;;;;;5.10;1.60;;;28.40;11.90;;;;;;5052981;28;20552;-67
2021/04/26 11:57:52;;;;;;;2.58;0.30;;;29.10;11.30;;;;;;5052861;28;20106;-67
2021/04/26 12:00:25;;;;;;;2.30;0.75;;;29.10;11.30;;;;;;5040355;28;20053;-67
2021/04/26 12:03:02;;;;;;;0.80;0.50;;;28.90;11.20;;;;;;5050328;28;20263;-67
2021/04/26 12:05:35;;;;;;;0.57;0.47;;;29.20;11.10;;;;;;5049603;28;20147;-67
2021/04/26 12:08:04;;;;;;;2.55;0.50;;;30.00;11.00;;;;;;5056091;28;20334;-67
2021/04/26 12:10:40;;;;;;;1.90;0.60;;;29.80;10.60;;;;;;5049711;28;20040;-68
2021/04/26 12:13:08;;;;;;;3.80;0.50;;;29.40;10.90;;;;;;5055685;28;20052;-67
2021/04/26 12:15:38;;;;;;;1.92;0.50;;;29.40;11.20;;;;;;5050864;28;20366;-68
2021/04/26 12:18:09;;;;;;;3.78;0.60;;;29.60;10.90;;;;;;5057755;28;20053;-68
2021/04/26 12:20:38;;;;;;;1.70;0.40;;;29.70;10.90;;;;;;5059921;28;20049;-68
2021/04/26 12:23:06;;;;;;;0.80;0.40;;;29.80;10.50;;;;;;5057718;28;20057;-68
2021/04/26 12:25:36;;;;;;;1.33;0.60;;;30.00;10.60;;;;;;5049503;28;20053;-68
2021/04/26 12:28:07;;;;;;;1.17;0.50;;;29.80;10.50;;;;;;5051206;28;20048;-68
2021/04/26 12:30:38;;;;;;;1.48;0.60;;;30.00;10.60;;;;;;5053571;28;20052;-67
2021/04/26 12:33:20;;;;;;;1.48;0.40;;;29.60;10.60;;;;;;5055919;28;20056;-67
2021/04/26 12:35:47;;;;;;;3.28;0.90;;;29.60;10.60;;;;;;5048893;28;20057;-68
2021/04/26 12:38:14;;;;;;;1.35;0.50;;;29.50;11.10;;;;;;5048986;28;20061;-67
2021/04/26 12:40:41;;;;;;;2.53;0.63;;;29.30;11.80;;;;;;5047886;28;20061;-67
2021/04/26 12:43:12;;;;;;;1.73;0.50;;;29.70;11.40;;;;;;5051997;28;20083;-67
2021/04/26 12:45:41;;;;;;;6.32;0.85;;;29.70;10.90;;;;;;5054688;28;20052;-67
2021/04/26 12:48:09;;;;;;;2.85;0.60;;;29.60;11.10;;;;;;5056013;28;20095;-67
2021/04/26 12:50:39;;;;;;;2.30;1.17;;;29.60;11.30;;;;;;5059051;28;20116;-67
2021/04/26 12:53:17;;;;;;;1.52;0.68;;;30.00;10.90;;;;;;5062046;28;20060;-67
2021/04/26 12:55:48;;;;;;;2.10;0.52;;;31.20;10.30;;;;;;5059358;28;20345;-68
2021/04/26 12:58:17;;;;;;;1.17;0.40;;;30.80;10.00;;;;;;5060635;28;20091;-68
2021/04/26 13:00:48;;;;;;;2.15;0.75;;;30.60;10.10;;;;;;5050877;28;20400;-68
2021/04/26 13:03:31;;;;;;;1.15;0.40;;;30.10;10.40;;;;;;5048832;28;20507;-68
2021/04/26 13:06:00;;;;;;;0.85;0.38;;;29.70;10.60;;;;;;5055619;28;20040;-67
2021/04/26 13:08:30;;;;;;;0.88;0.45;;;29.90;10.40;;;;;;5051045;28;20049;-67
2021/04/26 13:10:59;;;;;;;1.13;0.47;;;30.20;10.60;;;;;;5055273;28;20392;-67
2021/04/26 13:13:26;;;;;;;1.43;0.63;;;30.20;10.10;;;;;;5052822;28;20068;-68
2021/04/26 13:15:54;;;;;;;2.20;0.80;;;30.30;9.80;;;;;;5055029;28;20041;-68
2021/04/26 13:18:23;;;;;;;1.83;0.47;;;30.00;9.90;;;;;;5051219;28;20053;-69
2021/04/26 13:21:10;;;;;;;0.63;0.40;;;29.40;10.40;;;;;;5050544;28;20067;-67
2021/04/26 13:23:38;;;;;;;2.67;1.00;;;29.30;10.60;;;;;;5051010;28;20237;-68
2021/04/26 13:26:20;;;;;;;5.60;0.60;;;29.30;10.30;;;;;;5050121;28;20045;-67
2021/04/26 13:28:47;;;;;;;1.98;0.90;;;29.60;10.90;;;;;;5051417;28;20112;-67
2021/04/26 13:31:15;;;;;;;1.50;0.50;;;30.30;10.30;;;;;;5050959;28;20112;-67
2021/04/26 13:33:42;;;;;;;2.85;0.73;;;30.50;9.70;;;;;;5054029;28;20383;-68
2021/04/26 13:36:10;;;;;;;2.53;0.77;;;30.20;9.80;;;;;;5047098;28;20044;-67
2021/04/26 13:38:36;;;;;;;0.90;0.47;;;30.60;9.90;;;;;;5050903;28;20279;-67
2021/04/26 13:41:04;;;;;;;0.95;0.55;;;30.90;9.20;;;;;;5053107;28;20056;-67
2021/04/26 13:43:31;;;;;;;4.57;0.40;;;30.70;9.60;;;;;;5055598;28;20053;-67
2021/04/26 13:45:58;;;;;;;2.05;0.50;;;30.30;10.10;;;;;;5054210;28;20352;-67
2021/04/26 13:48:26;;;;;;;0.73;0.38;;;30.60;10.00;;;;;;5060016;28;20059;-67
2021/04/26 13:50:53;;;;;;;3.17;0.60;;;30.40;10.50;;;;;;5056824;28;20052;-66
2021/04/26 13:53:20;;;;;;;2.40;0.68;;;31.50;10.10;;;;;;5051945;28;20083;-67